Time;durP1;ratioP1;P1;durP2;ratioP2;P2;SDS_P1;SDS_P2;PMS_P1;PMS_P2;Temp;Humidity;BMP_temperature;BMP_pressure;BME280_temperature;BME280_humidity;BME280_pressure;Samples;Min_cycle;Max_cycle;Signal;HPM_P1;HPM_P2
2022/07/20 04:01:21;;;;;;;8.10;2.57;;;20.80;89.90;;;;;;5623013;23;20543;-77
2022/07/20 04:03:47;;;;;;;4.50;2.57;;;21.00;89.40;;;;;;5005965;28;20457;-77
2022/07/20 04:06:12;;;;;;;6.60;3.20;;;20.90;89.80;;;;;;5010366;28;20644;-77
2022/07/20 04:08:38;;;;;;;7.30;3.03;;;20.90;89.60;;;;;;5015067;28;20663;-79
2022/07/20 04:11:03;;;;;;;10.23;2.87;;;20.80;90.10;;;;;;5022765;28;20185;-77
2022/07/20 04:13:28;;;;;;;3.90;2.83;;;20.80;90.70;;;;;;4996915;28;20516;-77
2022/07/20 04:15:54;;;;;;;4.70;2.97;;;20.90;90.40;;;;;;5001758;28;20181;-78
2022/07/20 04:18:20;;;;;;;5.27;2.70;;;20.70;90.40;;;;;;4991166;28;20198;-78
2022/07/20 04:20:45;;;;;;;6.23;2.87;;;20.60;91.90;;;;;;4991801;23;20221;-78
2022/07/20 04:23:14;;;;;;;7.73;3.50;;;20.60;92.50;;;;;;5004398;28;20264;-78
2022/07/20 04:25:40;;;;;;;4.60;2.70;;;20.70;91.90;;;;;;4998272;28;20174;-79
2022/07/20 04:28:05;;;;;;;6.10;2.60;;;20.80;92.10;;;;;;4996360;28;20421;-79
2022/07/20 04:30:33;;;;;;;7.40;2.57;;;21.40;90.60;;;;;;5004151;28;20180;-79
2022/07/20 04:32:58;;;;;;;5.70;3.33;;;22.00;89.30;;;;;;5008893;28;20177;-78
2022/07/20 04:35:23;;;;;;;5.27;2.47;;;22.60;86.60;;;;;;4985230;28;20568;-78
2022/07/20 04:37:49;;;;;;;4.27;2.97;;;22.90;86.00;;;;;;4983231;28;20180;-79
2022/07/20 04:40:14;;;;;;;7.70;2.80;;;23.60;84.60;;;;;;4990641;28;20170;-78
2022/07/20 04:42:40;;;;;;;6.70;2.90;;;24.30;82.20;;;;;;4988603;28;20597;-79
2022/07/20 04:45:06;;;;;;;8.13;3.03;;;24.60;81.50;;;;;;4996857;28;20196;-78
2022/07/20 04:47:31;;;;;;;4.57;2.77;;;24.80;81.50;;;;;;4996061;28;20176;-78
2022/07/20 04:49:57;;;;;;;7.23;2.20;;;25.40;80.30;;;;;;4997323;28;20177;-79
2022/07/20 04:52:22;;;;;;;8.23;2.97;;;25.40;79.00;;;;;;4984708;28;20629;-78
2022/07/20 04:54:48;;;;;;;8.70;2.70;;;25.70;78.90;;;;;;4974841;28;20184;-78
2022/07/20 04:57:13;;;;;;;5.13;2.80;;;26.30;77.40;;;;;;4991403;28;20185;-78
2022/07/20 04:59:39;;;;;;;6.37;3.20;;;26.80;76.80;;;;;;4993644;28;20200;-78
2022/07/20 05:02:04;;;;;;;9.40;2.90;;;27.20;74.60;;;;;;4992877;28;20247;-78
2022/07/20 05:04:30;;;;;;;3.00;2.37;;;27.90;73.60;;;;;;4994173;28;20240;-78
2022/07/20 05:06:55;;;;;;;3.60;2.40;;;27.90;73.10;;;;;;4993850;28;20173;-78
2022/07/20 05:09:21;;;;;;;7.50;3.17;;;28.60;71.60;;;;;;4994468;28;20710;-78
2022/07/20 05:11:46;;;;;;;5.40;2.90;;;29.50;70.20;;;;;;4982175;28;20769;-77
2022/07/20 05:14:12;;;;;;;6.40;3.10;;;29.60;69.50;;;;;;4974616;28;20190;-76
2022/07/20 05:16:38;;;;;;;8.53;2.50;;;29.50;69.30;;;;;;4974483;28;20264;-77
2022/07/20 05:19:04;;;;;;;5.73;2.70;;;29.10;70.60;;;;;;4973951;28;20268;-77
2022/07/20 05:21:29;;;;;;;4.50;2.80;;;28.90;71.10;;;;;;4974283;28;20340;-77
2022/07/20 05:23:55;;;;;;;5.93;2.50;;;29.50;70.80;;;;;;4974104;28;20298;-76
2022/07/20 05:26:20;;;;;;;10.97;2.87;;;29.70;69.30;;;;;;4984813;28;20177;-77
2022/07/20 05:28:46;;;;;;;5.00;2.53;;;30.00;68.80;;;;;;4993172;28;20715;-76
2022/07/20 05:31:13;;;;;;;7.10;2.90;;;29.50;68.90;;;;;;4993685;28;20207;-77
2022/07/20 05:33:40;;;;;;;7.93;2.67;;;30.00;69.10;;;;;;4992399;28;20177;-77
2022/07/20 05:36:06;;;;;;;6.70;3.07;;;30.80;67.10;;;;;;4976882;28;20496;-76
2022/07/20 05:38:31;;;;;;;10.93;3.10;;;31.20;66.20;;;;;;4973275;28;20500;-77
2022/07/20 05:40:57;;;;;;;7.90;2.60;;;31.80;65.20;;;;;;5002633;28;20224;-77
2022/07/20 05:43:23;;;;;;;6.60;2.43;;;31.90;64.90;;;;;;5013016;28;20240;-77
2022/07/20 05:45:48;;;;;;;9.57;3.00;;;31.60;66.10;;;;;;5012791;28;20259;-77
2022/07/20 05:48:15;;;;;;;3.53;2.50;;;31.70;65.70;;;;;;5010363;28;20177;-77
2022/07/20 05:50:41;;;;;;;7.45;2.53;;;32.10;64.90;;;;;;5012799;28;20283;-77
2022/07/20 05:53:07;;;;;;;4.38;2.90;;;32.30;64.10;;;;;;4990676;28;20727;-77
2022/07/20 05:55:34;;;;;;;7.03;2.80;;;32.50;64.10;;;;;;4993336;28;20265;-77
2022/07/20 05:58:00;;;;;;;7.25;2.63;;;32.50;63.90;;;;;;4992296;28;20184;-77
2022/07/20 06:00:25;;;;;;;3.60;2.45;;;32.60;64.70;;;;;;4984419;28;20657;-77
2022/07/20 06:02:50;;;;;;;9.60;2.85;;;33.10;63.70;;;;;;4993068;28;20205;-77
2022/07/20 06:05:16;;;;;;;10.73;3.05;;;33.60;62.60;;;;;;4990109;28;20205;-78
2022/07/20 06:07:41;;;;;;;3.85;2.50;;;34.30;61.60;;;;;;4992540;28;20193;-76
2022/07/20 06:10:07;;;;;;;8.27;3.15;;;34.80;61.10;;;;;;4994495;28;20694;-76
2022/07/20 06:12:33;;;;;;;8.50;3.08;;;35.20;60.60;;;;;;4992598;28;20230;-77
2022/07/20 06:14:58;;;;;;;8.30;2.58;;;35.30;60.80;;;;;;4992941;28;20671;-78
2022/07/20 06:17:32;;;;;;;7.57;2.53;;;35.20;60.40;;;;;;4992819;28;20181;-77
2022/07/20 06:19:58;;;;;;;8.40;2.83;;;36.20;58.40;;;;;;4993084;28;20663;-76
2022/07/20 06:22:23;;;;;;;6.75;2.95;;;35.70;59.90;;;;;;4992656;28;20216;-77
2022/07/20 06:24:48;;;;;;;7.20;2.45;;;35.80;59.50;;;;;;4991580;28;20321;-76
2022/07/20 06:27:14;;;;;;;8.27;2.92;;;34.80;60.90;;;;;;4992981;28;20181;-76
2022/07/20 06:29:39;;;;;;;6.25;2.22;;;34.90;60.50;;;;;;4992676;28;20181;-77
2022/07/20 06:32:05;;;;;;;5.70;2.10;;;35.60;59.00;;;;;;4992797;28;20193;-78
2022/07/20 06:34:31;;;;;;;6.70;2.80;;;35.70;58.70;;;;;;4993347;28;20181;-76
2022/07/20 06:36:56;;;;;;;13.57;2.60;;;35.00;59.80;;;;;;4992705;28;20177;-76
2022/07/20 06:39:21;;;;;;;7.10;2.60;;;35.20;58.60;;;;;;4992429;28;20181;-77
2022/07/20 06:41:47;;;;;;;6.07;2.92;;;35.30;58.50;;;;;;4992552;28;20631;-77
2022/07/20 06:44:12;;;;;;;12.73;2.30;;;35.30;58.40;;;;;;4992643;28;20201;-77
2022/07/20 06:46:38;;;;;;;4.65;2.70;;;35.70;58.60;;;;;;4992657;28;20660;-77
2022/07/20 06:49:05;;;;;;;6.85;2.67;;;35.80;58.40;;;;;;4992436;28;20177;-78
2022/07/20 06:51:30;;;;;;;14.55;2.78;;;35.90;58.10;;;;;;4992499;28;20560;-77
2022/07/20 06:53:56;;;;;;;10.73;2.70;;;36.00;59.10;;;;;;4992597;28;20196;-79
2022/07/20 06:56:21;;;;;;;5.82;2.63;;;36.80;58.30;;;;;;4992664;28;20195;-77
2022/07/20 06:58:46;;;;;;;9.77;2.28;;;37.10;55.70;;;;;;4994550;28;20238;-78
2022/07/20 07:01:12;;;;;;;9.10;2.47;;;37.20;56.50;;;;;;4996622;28;20565;-78
2022/07/20 07:03:37;;;;;;;7.03;2.75;;;36.70;57.30;;;;;;4996453;28;20199;-77
2022/07/20 07:06:03;;;;;;;4.30;2.67;;;37.70;56.10;;;;;;4996527;28;20251;-77
2022/07/20 07:08:28;;;;;;;6.32;3.13;;;37.20;56.00;;;;;;4996233;28;20644;-78
2022/07/20 07:10:54;;;;;;;6.97;2.03;;;36.10;57.20;;;;;;4996348;28;20200;-77
2022/07/20 07:13:20;;;;;;;8.90;2.72;;;36.10;56.60;;;;;;4996463;28;20420;-77
2022/07/20 07:15:45;;;;;;;8.57;2.90;;;36.20;56.80;;;;;;4996406;28;20177;-77
2022/07/20 07:18:10;;;;;;;3.25;2.22;;;36.30;57.90;;;;;;4996127;28;20188;-77
2022/07/20 07:20:36;;;;;;;7.60;2.60;;;36.60;56.20;;;;;;4996015;28;20649;-77
2022/07/20 07:23:01;;;;;;;4.30;2.30;;;37.00;55.30;;;;;;4996066;28;20256;-77
2022/07/20 07:25:27;;;;;;;8.50;2.30;;;37.50;55.70;;;;;;4996343;28;20220;-78
2022/07/20 07:27:52;;;;;;;3.92;2.08;;;37.70;52.80;;;;;;5010947;28;20204;-77
2022/07/20 07:30:18;;;;;;;3.40;1.80;;;38.30;52.60;;;;;;4996171;28;20200;-77
2022/07/20 07:32:44;;;;;;;4.32;2.05;;;38.60;52.10;;;;;;4996069;28;20649;-77
2022/07/20 07:35:09;;;;;;;6.00;2.63;;;37.80;53.40;;;;;;4995865;28;20173;-78
2022/07/20 07:37:37;;;;;;;4.25;2.20;;;38.30;52.90;;;;;;4995774;28;20177;-77
2022/07/20 07:40:03;;;;;;;3.55;2.28;;;38.40;51.60;;;;;;5001117;28;20801;-77
2022/07/20 07:42:29;;;;;;;6.03;2.10;;;38.50;51.90;;;;;;5015304;28;20272;-77
2022/07/20 07:44:54;;;;;;;10.60;2.00;;;37.80;53.30;;;;;;5013994;28;20572;-77
2022/07/20 07:47:20;;;;;;;6.30;2.17;;;37.40;52.80;;;;;;5015288;28;20169;-77
2022/07/20 07:49:45;;;;;;;7.35;2.20;;;36.70;54.60;;;;;;5015019;28;20184;-77
2022/07/20 07:52:11;;;;;;;7.82;2.30;;;36.60;54.10;;;;;;5015125;28;20204;-77
2022/07/20 07:54:36;;;;;;;7.28;2.47;;;36.70;52.80;;;;;;5015167;28;20172;-77
2022/07/20 07:57:02;;;;;;;6.85;2.53;;;36.80;54.00;;;;;;5015160;28;20747;-78
2022/07/20 07:59:28;;;;;;;3.33;1.80;;;35.40;52.70;;;;;;5014921;28;20710;-77
2022/07/20 08:01:54;;;;;;;3.63;1.80;;;35.50;52.70;;;;;;5001962;28;20199;-77
2022/07/20 08:04:19;;;;;;;17.10;2.95;;;35.50;52.40;;;;;;4995341;28;20197;-77
2022/07/20 08:06:45;;;;;;;4.70;2.03;;;35.40;52.30;;;;;;4995402;28;20255;-77
2022/07/20 08:09:11;;;;;;;7.63;2.10;;;35.20;53.00;;;;;;4994567;28;20191;-77
2022/07/20 08:11:36;;;;;;;3.70;2.20;;;35.90;52.70;;;;;;4993526;28;20188;-77
2022/07/20 08:14:02;;;;;;;3.08;1.90;;;35.50;51.50;;;;;;4995392;28;20192;-76
2022/07/20 08:16:29;;;;;;;2.70;1.75;;;35.10;52.60;;;;;;4995155;28;20169;-77
2022/07/20 08:18:55;;;;;;;5.40;1.95;;;35.20;53.60;;;;;;4995083;28;20169;-77
2022/07/20 08:21:20;;;;;;;2.88;1.80;;;35.00;53.00;;;;;;4994997;28;20593;-77
2022/07/20 08:23:46;;;;;;;4.05;2.25;;;35.00;52.80;;;;;;4995138;28;20201;-77
2022/07/20 08:26:11;;;;;;;8.40;2.55;;;34.60;54.30;;;;;;4994989;28;20184;-77
2022/07/20 08:28:37;;;;;;;6.20;2.05;;;34.60;52.70;;;;;;4994775;28;20185;-78
2022/07/20 08:31:03;;;;;;;11.73;2.25;;;34.50;52.90;;;;;;4994446;28;20193;-78
2022/07/20 08:33:28;;;;;;;10.15;2.20;;;35.00;53.40;;;;;;4994786;28;20184;-77
2022/07/20 08:35:54;;;;;;;11.68;1.90;;;35.40;53.40;;;;;;4994949;28;20188;-77
2022/07/20 08:38:19;;;;;;;4.97;2.10;;;35.40;52.20;;;;;;4994640;28;20676;-78
2022/07/20 08:40:45;;;;;;;4.90;1.85;;;35.30;52.20;;;;;;5005671;28;20276;-76
2022/07/20 08:43:13;;;;;;;7.93;1.77;;;34.80;52.60;;;;;;5014120;28;20180;-77
2022/07/20 08:45:38;;;;;;;7.43;2.03;;;34.70;53.50;;;;;;5014236;28;20171;-76
2022/07/20 08:48:08;;;;;;;7.60;1.75;;;34.70;52.70;;;;;;5012597;28;20545;-78
2022/07/20 08:50:34;;;;;;;3.60;1.60;;;35.10;52.60;;;;;;5014152;28;20165;-76
2022/07/20 08:53:00;;;;;;;5.72;2.50;;;34.80;51.90;;;;;;5014178;28;20231;-76
2022/07/20 08:55:26;;;;;;;4.47;1.77;;;35.10;52.20;;;;;;5012602;28;20176;-77
2022/07/20 08:57:51;;;;;;;4.05;2.30;;;34.40;53.00;;;;;;5012490;28;20192;-76
2022/07/20 09:00:17;;;;;;;5.22;1.95;;;34.40;53.50;;;;;;5014157;28;20690;-77
2022/07/20 09:03:01;;;;;;;6.45;2.10;;;34.10;54.60;;;;;;5014256;28;20196;-77
2022/07/20 09:05:28;;;;;;;3.75;2.42;;;34.20;54.30;;;;;;5013727;28;20200;-77
2022/07/20 09:07:56;;;;;;;4.97;1.90;;;34.10;54.20;;;;;;5013364;28;20195;-78
2022/07/20 09:10:26;;;;;;;11.63;1.90;;;34.00;53.70;;;;;;5013770;28;20180;-76
2022/07/20 09:13:05;;;;;;;8.43;2.15;;;34.40;52.90;;;;;;5013629;28;20176;-76
2022/07/20 09:15:55;;;;;;;4.00;2.00;;;34.50;53.00;;;;;;5013812;28;20810;-76
2022/07/20 09:18:27;;;;;;;5.63;2.10;;;34.00;54.90;;;;;;5013222;28;20706;-76
2022/07/20 09:21:01;;;;;;;7.18;1.90;;;34.10;54.90;;;;;;4996843;28;20215;-76
2022/07/20 09:23:42;;;;;;;2.88;1.75;;;34.30;54.10;;;;;;4994366;28;20536;-76
2022/07/20 09:26:11;;;;;;;4.55;2.13;;;34.40;53.50;;;;;;4994266;28;20212;-76
2022/07/20 09:28:42;;;;;;;7.40;2.58;;;34.80;54.10;;;;;;4993954;28;20637;-76
2022/07/20 09:31:13;;;;;;;3.35;2.15;;;34.80;53.40;;;;;;4992699;28;20203;-77
2022/07/20 09:33:40;;;;;;;8.43;2.20;;;34.80;52.30;;;;;;4993983;28;20649;-76
2022/07/20 09:36:07;;;;;;;6.60;2.10;;;33.90;53.60;;;;;;4993809;28;20185;-76
2022/07/20 09:38:35;;;;;;;3.60;1.90;;;33.90;54.20;;;;;;4994485;28;20185;-76
2022/07/20 09:41:03;;;;;;;7.88;2.20;;;34.30;52.70;;;;;;4999691;28;20256;-76
2022/07/20 09:43:32;;;;;;;5.82;2.60;;;34.50;52.90;;;;;;4994708;28;20199;-76
2022/07/20 09:46:17;;;;;;;3.10;2.17;;;34.30;52.30;;;;;;4994957;28;20181;-76
2022/07/20 09:48:45;;;;;;;4.23;2.20;;;33.70;53.90;;;;;;4993084;28;20177;-76
2022/07/20 09:51:21;;;;;;;4.70;2.13;;;33.90;54.10;;;;;;4993952;28;20962;-76
2022/07/20 09:53:49;;;;;;;3.90;2.13;;;34.10;53.90;;;;;;4990300;28;20420;-76
2022/07/20 09:56:17;;;;;;;3.50;2.43;;;34.20;52.60;;;;;;4992558;28;20216;-76
2022/07/20 09:58:46;;;;;;;4.00;2.10;;;34.30;53.20;;;;;;4993245;28;20669;-77
2022/07/20 10:01:22;;;;;;;8.17;3.30;;;34.30;51.20;;;;;;4993070;28;20447;-75
2022/07/20 10:03:49;;;;;;;5.07;2.83;;;34.10;52.90;;;;;;4992227;28;20243;-76
2022/07/20 10:06:16;;;;;;;6.63;2.37;;;33.20;53.10;;;;;;4992273;28;20427;-75
2022/07/20 10:08:42;;;;;;;9.70;2.60;;;33.30;52.90;;;;;;4993252;28;20177;-76
2022/07/20 10:11:08;;;;;;;4.57;2.27;;;33.50;54.00;;;;;;4993380;28;20732;-76
2022/07/20 10:13:34;;;;;;;5.97;2.20;;;34.10;52.20;;;;;;4993378;28;20169;-76
2022/07/20 10:16:31;;;;;;;7.63;2.50;;;34.40;53.00;;;;;;4993786;28;20234;-77
2022/07/20 10:18:57;;;;;;;4.88;2.40;;;34.90;52.80;;;;;;4993672;28;20184;-77
2022/07/20 10:21:41;;;;;;;9.73;2.75;;;35.00;52.70;;;;;;4993134;28;20639;-78
2022/07/20 10:24:31;;;;;;;7.72;2.38;;;34.70;52.30;;;;;;4993133;28;20661;-76
2022/07/20 10:27:06;;;;;;;14.87;3.30;;;33.90;52.30;;;;;;4991897;28;20181;-77
2022/07/20 10:29:39;;;;;;;9.90;2.33;;;33.70;53.40;;;;;;4983263;28;20181;-77
2022/07/20 10:32:23;;;;;;;9.63;2.50;;;33.50;53.50;;;;;;4973612;28;20190;-76
2022/07/20 10:34:57;;;;;;;4.57;2.20;;;33.70;52.90;;;;;;4995347;28;20186;-77
2022/07/20 10:37:39;;;;;;;4.35;2.03;;;33.30;52.40;;;;;;5011601;28;20172;-76
2022/07/20 10:40:17;;;;;;;4.27;2.37;;;33.40;53.80;;;;;;5006984;28;20696;-76
2022/07/20 10:43:10;;;;;;;8.68;2.83;;;33.30;54.20;;;;;;4993165;28;20498;-77
2022/07/20 10:45:36;;;;;;;11.65;2.80;;;33.50;54.10;;;;;;5008270;28;20208;-78
2022/07/20 10:48:11;;;;;;;6.37;2.20;;;33.90;54.30;;;;;;4992876;28;20205;-76
2022/07/20 10:50:39;;;;;;;8.10;2.22;;;33.90;52.60;;;;;;4991707;28;20208;-77
2022/07/20 10:53:10;;;;;;;6.40;2.50;;;33.60;53.20;;;;;;4993052;28;20191;-77
2022/07/20 10:55:36;;;;;;;14.30;2.60;;;34.10;53.40;;;;;;4991630;28;20180;-76
2022/07/20 10:58:06;;;;;;;6.20;2.92;;;34.90;53.10;;;;;;4991220;28;20724;-77
2022/07/20 11:00:36;;;;;;;3.80;2.10;;;35.40;51.30;;;;;;4992539;28;20187;-77
2022/07/20 11:03:04;;;;;;;6.25;2.40;;;35.00;50.00;;;;;;4991314;28;20201;-77
2022/07/20 11:05:30;;;;;;;7.45;2.90;;;35.00;51.30;;;;;;4992500;28;20201;-77
2022/07/20 11:07:56;;;;;;;9.77;2.80;;;35.10;52.80;;;;;;4992296;28;20224;-77
2022/07/20 11:10:27;;;;;;;6.32;2.67;;;35.00;52.30;;;;;;4992616;28;20594;-77
2022/07/20 11:13:00;;;;;;;12.25;2.67;;;35.10;51.60;;;;;;4992464;28;20256;-77
2022/07/20 11:15:51;;;;;;;12.18;2.60;;;34.80;53.00;;;;;;4992581;28;20268;-77
2022/07/20 11:18:22;;;;;;;12.00;2.80;;;34.70;52.60;;;;;;4992311;28;20188;-77
2022/07/20 11:20:52;;;;;;;9.23;3.10;;;34.20;52.40;;;;;;4991194;28;20212;-77
2022/07/20 11:23:20;;;;;;;5.53;2.45;;;34.40;53.00;;;;;;4992296;28;20188;-77
2022/07/20 11:25:49;;;;;;;4.80;2.63;;;34.70;51.90;;;;;;4991449;28;20635;-77
2022/07/20 11:28:17;;;;;;;15.77;2.88;;;34.80;53.00;;;;;;4990935;28;20690;-76
2022/07/20 11:30:43;;;;;;;4.57;2.55;;;35.40;53.00;;;;;;4992301;28;20808;-77
2022/07/20 11:33:09;;;;;;;3.95;2.10;;;35.20;53.10;;;;;;4991178;28;20201;-76
2022/07/20 11:35:36;;;;;;;2.97;2.00;;;34.60;53.40;;;;;;4992433;28;20169;-76
2022/07/20 11:38:01;;;;;;;5.28;2.60;;;34.10;54.30;;;;;;4991932;28;20203;-77
2022/07/20 11:40:27;;;;;;;6.22;2.60;;;33.40;55.40;;;;;;4992265;28;20613;-77
2022/07/20 11:43:15;;;;;;;10.77;3.07;;;33.90;54.70;;;;;;4992083;28;20181;-76
2022/07/20 11:45:41;;;;;;;6.47;2.78;;;33.70;54.10;;;;;;4995678;28;20158;-76
2022/07/20 11:48:21;;;;;;;6.93;2.70;;;33.50;54.80;;;;;;4995685;28;20176;-77
2022/07/20 11:50:47;;;;;;;6.27;2.60;;;34.00;54.70;;;;;;4995784;28;20192;-77
2022/07/20 11:53:30;;;;;;;14.38;2.92;;;34.20;54.50;;;;;;4995695;28;20496;-77
2022/07/20 11:55:57;;;;;;;7.40;2.75;;;34.40;54.70;;;;;;4995707;28;20173;-76
2022/07/20 11:58:33;;;;;;;9.60;2.55;;;34.50;53.90;;;;;;4994771;28;20558;-77
2022/07/20 12:01:00;;;;;;;7.70;2.72;;;34.80;53.60;;;;;;4994659;28;20201;-77
2022/07/20 12:03:35;;;;;;;6.95;2.72;;;34.90;53.30;;;;;;5010308;28;20169;-76
2022/07/20 12:06:05;;;;;;;3.25;2.38;;;35.00;55.10;;;;;;5003368;28;20172;-77
2022/07/20 12:08:31;;;;;;;7.22;2.72;;;34.80;53.60;;;;;;4986117;28;20173;-76
2022/07/20 12:10:57;;;;;;;6.47;2.28;;;34.90;54.10;;;;;;4987812;28;20206;-78
2022/07/20 12:13:23;;;;;;;9.23;2.80;;;34.90;54.20;;;;;;4988381;28;20181;-78
2022/07/20 12:16:01;;;;;;;6.50;2.83;;;34.70;53.60;;;;;;4986591;28;20181;-76
2022/07/20 12:18:53;;;;;;;16.30;3.07;;;34.00;54.40;;;;;;4984564;28;20648;-75
2022/07/20 12:21:27;;;;;;;16.23;2.73;;;33.80;54.60;;;;;;4985897;28;20260;-76
2022/07/20 12:23:53;;;;;;;6.73;2.73;;;33.90;54.70;;;;;;4994639;28;20216;-76
2022/07/20 12:26:21;;;;;;;8.23;2.50;;;34.00;55.00;;;;;;4995137;28;20173;-76
2022/07/20 12:28:47;;;;;;;5.82;2.70;;;34.30;54.80;;;;;;4998674;28;20251;-75
2022/07/20 12:31:15;;;;;;;5.43;2.65;;;34.40;54.60;;;;;;4993339;28;20292;-75
2022/07/20 12:34:00;;;;;;;6.45;2.50;;;34.50;55.10;;;;;;4995121;28;20625;-75
2022/07/20 12:36:49;;;;;;;11.85;2.28;;;34.50;53.90;;;;;;4993622;28;20267;-78
2022/07/20 12:39:41;;;;;;;3.85;2.55;;;34.60;54.00;;;;;;4994408;28;20169;-78
2022/07/20 12:42:16;;;;;;;8.07;2.40;;;34.60;54.30;;;;;;4989510;28;20205;-77
2022/07/20 12:44:43;;;;;;;7.53;2.25;;;34.60;55.60;;;;;;4983428;28;20193;-78
2022/07/20 12:47:09;;;;;;;7.40;2.47;;;34.80;54.60;;;;;;4985549;28;20177;-78
2022/07/20 12:49:35;;;;;;;6.55;2.30;;;35.60;53.80;;;;;;4986271;28;20663;-78
2022/07/20 12:52:01;;;;;;;6.53;2.50;;;35.60;52.90;;;;;;4980989;28;20205;-78
2022/07/20 12:54:27;;;;;;;5.38;2.22;;;35.50;52.80;;;;;;4983353;28;20659;-77
2022/07/20 12:56:53;;;;;;;10.00;2.72;;;35.30;53.40;;;;;;4986868;28;20272;-77
2022/07/20 12:59:19;;;;;;;14.82;2.80;;;35.60;53.40;;;;;;4985207;28;20177;-79
2022/07/20 13:01:48;;;;;;;8.68;3.38;;;35.60;53.30;;;;;;4985090;28;20211;-78
2022/07/20 13:04:15;;;;;;;9.35;2.50;;;35.30;54.00;;;;;;4990262;28;20231;-75
2022/07/20 13:06:43;;;;;;;4.95;2.47;;;35.20;53.40;;;;;;4985267;28;20562;-76
2022/07/20 13:09:08;;;;;;;7.00;2.78;;;35.20;53.60;;;;;;4988040;28;20657;-77
2022/07/20 13:11:34;;;;;;;5.22;2.72;;;35.10;55.20;;;;;;4978830;28;20206;-77
2022/07/20 13:13:59;;;;;;;12.80;3.10;;;35.10;54.00;;;;;;4985049;28;20189;-78
2022/07/20 13:16:25;;;;;;;9.63;2.50;;;34.70;54.80;;;;;;4990425;28;20546;-78
2022/07/20 13:18:51;;;;;;;2.92;2.55;;;34.50;55.00;;;;;;4993240;28;20495;-78
2022/07/20 13:21:16;;;;;;;23.30;3.70;;;34.60;55.30;;;;;;4993197;28;20220;-77
2022/07/20 13:23:41;;;;;;;4.47;2.80;;;34.60;55.10;;;;;;4988523;28;20194;-78
2022/07/20 13:26:08;;;;;;;4.55;2.28;;;34.80;54.50;;;;;;4974006;28;20634;-78
2022/07/20 13:28:35;;;;;;;9.48;2.58;;;34.90;55.00;;;;;;4973653;28;20181;-79
2022/07/20 13:31:00;;;;;;;8.93;3.17;;;35.20;53.60;;;;;;4976580;28;20585;-78
2022/07/20 13:33:26;;;;;;;8.23;2.20;;;35.00;53.60;;;;;;4993237;28;20184;-77
2022/07/20 13:35:51;;;;;;;8.60;2.85;;;35.20;53.90;;;;;;4987319;28;20184;-76
2022/07/20 13:38:17;;;;;;;10.65;3.45;;;35.10;53.10;;;;;;4981871;28;20174;-76
2022/07/20 13:40:43;;;;;;;12.57;2.85;;;35.20;52.90;;;;;;4988821;28;20205;-78
2022/07/20 13:43:09;;;;;;;5.07;2.53;;;35.30;53.70;;;;;;4993952;28;20184;-77
2022/07/20 13:45:34;;;;;;;3.65;2.55;;;35.00;53.70;;;;;;4993246;28;20987;-76
2022/07/20 13:48:00;;;;;;;5.75;2.63;;;35.10;52.70;;;;;;5008185;28;20644;-76
2022/07/20 13:50:26;;;;;;;7.00;2.45;;;35.20;53.70;;;;;;4993365;28;20181;-76
2022/07/20 13:52:51;;;;;;;7.35;2.60;;;35.10;52.70;;;;;;4990023;28;20186;-76
2022/07/20 13:55:17;;;;;;;7.82;2.33;;;35.20;53.50;;;;;;4973482;28;20181;-77
2022/07/20 13:57:42;;;;;;;4.78;2.05;;;35.50;53.70;;;;;;4973637;28;20746;-79
2022/07/20 14:00:10;;;;;;;8.23;2.50;;;35.60;51.60;;;;;;4975927;28;20208;-80
2022/07/20 14:02:36;;;;;;;3.88;2.10;;;35.20;52.60;;;;;;5002591;28;20196;-80
2022/07/20 14:05:01;;;;;;;3.60;2.10;;;35.70;52.20;;;;;;5030001;28;20631;-80
2022/07/20 14:07:27;;;;;;;10.40;2.60;;;35.60;52.00;;;;;;5010889;28;20188;-77
2022/07/20 14:09:52;;;;;;;10.88;2.60;;;35.60;52.70;;;;;;5008970;28;20707;-77
2022/07/20 14:12:18;;;;;;;11.23;2.53;;;35.30;53.20;;;;;;5013103;28;20250;-78
2022/07/20 14:14:44;;;;;;;7.93;2.97;;;35.20;52.70;;;;;;5002870;28;20199;-78
2022/07/20 14:17:13;;;;;;;7.70;2.67;;;35.00;54.10;;;;;;4994417;28;20263;-77
2022/07/20 14:19:39;;;;;;;12.57;2.80;;;35.10;53.40;;;;;;4994461;28;20180;-78
2022/07/20 14:22:05;;;;;;;4.57;2.35;;;35.10;53.80;;;;;;4994475;28;20290;-78
2022/07/20 14:24:30;;;;;;;6.70;2.53;;;34.80;53.40;;;;;;4993486;28;20256;-78
2022/07/20 14:26:56;;;;;;;9.23;2.33;;;35.00;53.60;;;;;;4995406;28;20639;-78
2022/07/20 14:29:21;;;;;;;3.75;2.33;;;35.20;54.70;;;;;;4994962;28;20715;-80
2022/07/20 14:31:47;;;;;;;6.90;2.25;;;35.20;53.40;;;;;;4993448;28;20592;-78
2022/07/20 14:34:12;;;;;;;7.43;2.55;;;34.90;53.60;;;;;;4993220;28;20267;-79
2022/07/20 14:36:38;;;;;;;7.13;2.30;;;34.90;53.40;;;;;;4992141;28;20218;-79
2022/07/20 14:39:05;;;;;;;4.13;2.42;;;34.80;54.40;;;;;;4993104;28;20201;-79
2022/07/20 14:41:30;;;;;;;8.27;2.75;;;34.70;54.20;;;;;;5001877;28;20204;-79
2022/07/20 14:43:56;;;;;;;8.85;2.60;;;34.60;53.90;;;;;;4993133;28;20208;-78
2022/07/20 14:46:21;;;;;;;6.80;2.83;;;34.60;53.90;;;;;;4993377;28;20677;-79
2022/07/20 14:48:47;;;;;;;5.95;2.50;;;34.70;54.50;;;;;;4993132;28;20181;-79
2022/07/20 14:51:12;;;;;;;6.97;2.30;;;34.20;53.80;;;;;;4995960;28;20272;-79
2022/07/20 14:53:38;;;;;;;4.57;2.42;;;34.10;54.10;;;;;;5013004;28;20188;-80
2022/07/20 14:56:04;;;;;;;12.55;2.38;;;34.10;54.30;;;;;;5012836;28;20177;-79
2022/07/20 14:58:30;;;;;;;6.95;3.05;;;34.30;54.80;;;;;;5012753;28;20299;-80
2022/07/20 15:00:55;;;;;;;5.25;1.90;;;34.50;55.40;;;;;;5010359;28;20229;-76
2022/07/20 15:03:21;;;;;;;6.53;2.25;;;34.80;54.10;;;;;;4994031;28;20362;-78
2022/07/20 15:05:46;;;;;;;6.53;2.50;;;34.90;54.50;;;;;;4986289;28;20627;-78
2022/07/20 15:08:12;;;;;;;7.50;2.60;;;34.60;54.10;;;;;;4985485;28;20212;-76
2022/07/20 15:10:38;;;;;;;9.00;2.47;;;34.80;54.00;;;;;;4992824;28;20181;-77
2022/07/20 15:13:03;;;;;;;3.83;2.28;;;34.50;54.30;;;;;;4994240;28;20173;-78
2022/07/20 15:15:30;;;;;;;5.63;2.60;;;34.80;55.10;;;;;;4994180;28;20692;-80
2022/07/20 15:17:55;;;;;;;7.05;2.53;;;34.70;53.50;;;;;;4992792;28;20757;-77
2022/07/20 15:20:21;;;;;;;8.18;2.65;;;34.60;53.90;;;;;;4997472;28;20711;-79
2022/07/20 15:22:46;;;;;;;5.33;2.30;;;34.20;54.20;;;;;;4997944;28;20225;-79
2022/07/20 15:25:12;;;;;;;4.73;2.33;;;34.20;54.00;;;;;;4994894;28;20200;-80
2022/07/20 15:27:38;;;;;;;6.83;2.30;;;34.10;54.80;;;;;;4995883;28;20181;-78
2022/07/20 15:30:05;;;;;;;11.47;2.40;;;34.00;55.00;;;;;;4996915;28;20173;-79
2022/07/20 15:32:31;;;;;;;11.37;2.10;;;33.80;55.90;;;;;;4996128;28;20204;-79
2022/07/20 15:34:56;;;;;;;3.80;2.03;;;33.90;55.50;;;;;;4995258;28;20192;-79
2022/07/20 15:37:22;;;;;;;4.93;2.43;;;34.00;55.60;;;;;;4994497;28;20191;-78
2022/07/20 15:39:49;;;;;;;7.17;2.57;;;33.90;55.80;;;;;;4997598;28;20172;-79
2022/07/20 15:42:14;;;;;;;5.43;2.53;;;33.90;55.10;;;;;;4996664;28;20228;-79
2022/07/20 15:44:40;;;;;;;8.18;2.25;;;33.90;55.70;;;;;;4996686;28;20227;-79
2022/07/20 15:47:06;;;;;;;5.67;2.63;;;34.10;54.70;;;;;;4996631;28;20181;-80
2022/07/20 15:49:32;;;;;;;5.75;2.15;;;34.00;55.90;;;;;;4996629;28;20251;-80
2022/07/20 15:51:57;;;;;;;12.20;2.23;;;33.60;56.00;;;;;;4995723;28;20231;-80
2022/07/20 15:54:23;;;;;;;4.90;2.33;;;33.40;55.50;;;;;;4996141;28;20169;-79
2022/07/20 15:59:33;;;;;;;4.33;2.10;;;33.10;57.10;;;;;;4994168;28;20696;-78
2022/07/20 16:01:59;;;;;;;6.80;2.03;;;33.20;56.60;;;;;;4978178;28;20432;-80
2022/07/20 16:04:24;;;;;;;11.13;2.00;;;33.20;56.30;;;;;;4990157;28;20208;-79
2022/07/20 16:06:50;;;;;;;5.27;2.47;;;33.10;57.10;;;;;;5000926;28;20192;-78
2022/07/20 16:09:17;;;;;;;7.47;2.40;;;33.40;57.30;;;;;;5007276;28;20168;-78
2022/07/20 16:11:42;;;;;;;4.60;2.10;;;33.80;56.30;;;;;;5024275;28;20656;-78
2022/07/20 16:14:08;;;;;;;10.60;2.67;;;33.80;56.70;;;;;;5004827;28;20191;-79
2022/07/20 16:16:33;;;;;;;7.40;2.77;;;33.90;57.00;;;;;;5002247;28;20678;-77
2022/07/20 16:18:59;;;;;;;9.00;2.33;;;34.00;56.70;;;;;;4997204;28;20192;-81
2022/07/20 16:21:24;;;;;;;9.57;2.65;;;34.10;57.20;;;;;;4994992;28;20217;-79
2022/07/20 16:23:50;;;;;;;3.73;2.13;;;34.10;56.50;;;;;;4993685;28;20295;-81
2022/07/20 16:26:16;;;;;;;8.33;2.83;;;33.90;56.30;;;;;;4995350;28;20185;-80
2022/07/20 16:28:42;;;;;;;6.30;2.33;;;33.80;57.40;;;;;;4993575;28;20181;-80
2022/07/20 16:31:08;;;;;;;5.23;1.97;;;33.50;58.20;;;;;;4989812;28;20566;-78
2022/07/20 16:33:34;;;;;;;7.00;2.13;;;33.30;58.40;;;;;;4992173;28;20177;-79
2022/07/20 16:35:59;;;;;;;8.43;2.93;;;33.60;58.20;;;;;;4992871;28;20173;-79
2022/07/20 16:38:24;;;;;;;4.17;2.03;;;33.60;57.60;;;;;;4982047;28;20182;-78
2022/07/20 16:40:50;;;;;;;8.60;2.57;;;33.60;57.30;;;;;;5001875;28;20204;-78
2022/07/20 16:43:15;;;;;;;7.20;2.50;;;33.40;58.00;;;;;;5003545;28;20711;-80
2022/07/20 16:45:41;;;;;;;2.93;2.20;;;33.30;58.00;;;;;;4991883;28;20205;-75
2022/07/20 16:48:08;;;;;;;13.17;2.40;;;33.30;57.70;;;;;;5001804;28;20232;-76
2022/07/20 16:50:33;;;;;;;12.33;2.40;;;33.20;57.70;;;;;;5001267;28;20170;-78